createdAt,value
2019-03-31T00:00:03.058Z,20.22
2019-03-31T00:01:08.718Z,19.84
2019-03-31T00:02:03.681Z,21.37
2019-03-31T00:03:02.846Z,22.01
2019-03-31T00:04:02.832Z,21.78
2019-03-31T00:05:02.855Z,20.45
2019-03-31T00:06:03.456Z,20.43
2019-03-31T00:07:02.946Z,19.84
2019-03-31T00:08:03.674Z,20.52
2019-03-31T00:09:03.758Z,19.32
2019-03-31T00:10:03.810Z,19.42
2019-03-31T00:11:02.871Z,19.42
2019-03-31T00:12:03.733Z,19.92
2019-03-31T00:13:03.912Z,19.03
2019-03-31T00:14:03.457Z,19.73
2019-03-31T00:15:03.712Z,20.4
2019-03-31T00:16:03.639Z,19.08
2019-03-31T00:17:03.496Z,19.94
2019-03-31T00:18:03.033Z,20.81
2019-03-31T00:19:03.426Z,18.68
2019-03-31T00:20:03.317Z,18.84
2019-03-31T00:21:03.125Z,19.39
2019-03-31T00:22:03.089Z,18.89
2019-03-31T00:23:03.256Z,18.49
2019-03-31T00:24:03.013Z,19.19
2019-03-31T00:25:03.160Z,19.84
2019-03-31T00:26:02.744Z,20.05
2019-03-31T00:27:03.044Z,18.29
2019-03-31T00:28:03.180Z,18.44
2019-03-31T00:29:02.919Z,19.38
2019-03-31T00:30:03.203Z,19.46
2019-03-31T00:31:03.202Z,18.08
2019-03-31T00:32:02.608Z,17.51
2019-03-31T00:33:02.720Z,18.99
2019-03-31T00:34:02.792Z,18.68
2019-03-31T00:35:02.979Z,17.75
2019-03-31T00:36:03.803Z,18.21
2019-03-31T00:37:02.581Z,19.47
2019-03-31T00:38:02.677Z,18.3
2019-03-31T00:39:03.674Z,19.44
2019-03-31T00:40:03.654Z,18.17
2019-03-31T00:41:03.492Z,18.24
2019-03-31T00:42:03.729Z,19.52
2019-03-31T00:43:03.447Z,18.72
2019-03-31T00:44:03.508Z,19.25
2019-03-31T00:45:03.380Z,18.96
2019-03-31T00:46:03.280Z,18.11
2019-03-31T00:47:03.257Z,18.49
2019-03-31T00:48:03.268Z,19.32
2019-03-31T00:49:03.340Z,19.27
2019-03-31T00:50:02.987Z,18.65
2019-03-31T00:51:03.131Z,19.92
2019-03-31T00:52:03.109Z,17.98
2019-03-31T00:53:02.992Z,18.93
2019-03-31T00:54:03.038Z,20.27
2019-03-31T00:55:03.337Z,20.44
2019-03-31T00:56:02.986Z,20.54
2019-03-31T00:57:02.943Z,17.65
2019-03-31T00:58:03.542Z,20.06
2019-03-31T00:59:02.867Z,20.06
2019-03-31T01:00:03.258Z,18.52
2019-03-31T01:01:02.743Z,19.54
2019-03-31T01:02:03.086Z,19.54
2019-03-31T01:03:02.920Z,18.47
2019-03-31T01:04:03.230Z,18.42
2019-03-31T01:05:02.971Z,18.52
2019-03-31T01:06:02.996Z,18.72
2019-03-31T01:07:03.042Z,18.43
2019-03-31T01:08:02.961Z,18.57
2019-03-31T01:09:02.857Z,19.38
2019-03-31T01:10:03.072Z,19.69
2019-03-31T01:11:03.638Z,18.25
2019-03-31T01:12:02.832Z,19.28
2019-03-31T01:13:02.835Z,19.41
2019-03-31T01:14:03.559Z,20.26
2019-03-31T01:15:03.651Z,17.96
2019-03-31T01:16:03.029Z,17.82
2019-03-31T01:17:03.745Z,19.54
2019-03-31T01:18:03.650Z,19.46
2019-03-31T01:19:03.517Z,19.76
2019-03-31T01:20:03.452Z,20.54
2019-03-31T01:21:03.178Z,18.13
2019-03-31T01:22:02.897Z,20.02
2019-03-31T01:23:03.340Z,19.14
2019-03-31T01:24:03.078Z,18.91
2019-03-31T01:25:03.318Z,19.04
2019-03-31T01:26:03.379Z,20.07
2019-03-31T01:27:03.135Z,20.09
2019-03-31T01:28:03.078Z,19.29
2019-03-31T01:29:03.111Z,20.24
2019-03-31T01:30:03.558Z,19.43
2019-03-31T01:31:03.091Z,19.88
2019-03-31T01:32:02.777Z,19.08
2019-03-31T01:33:03.169Z,18.47
2019-03-31T01:34:02.795Z,18.65
2019-03-31T01:35:03.119Z,20.39
2019-03-31T01:36:02.968Z,19.56
2019-03-31T01:37:02.966Z,19.78
2019-03-31T01:38:02.577Z,20.86
2019-03-31T01:39:03.049Z,19.13
2019-03-31T01:40:02.685Z,19.74
2019-03-31T01:41:03.053Z,19.73
2019-03-31T01:42:03.727Z,19.28
2019-03-31T01:43:02.741Z,18.43
2019-03-31T01:44:03.728Z,18.44
2019-03-31T01:45:03.452Z,19.53
2019-03-31T01:46:03.587Z,20.65
2019-03-31T01:47:03.622Z,20.65
2019-03-31T01:48:03.635Z,17.7
2019-03-31T01:49:03.282Z,19.19
2019-03-31T01:50:03.529Z,19.19
2019-03-31T01:51:03.453Z,18.31
2019-03-31T01:52:03.387Z,19.1
2019-03-31T01:53:03.314Z,19.1
2019-03-31T01:54:03.462Z,18.14
2019-03-31T01:55:03.543Z,18.79
2019-03-31T01:56:02.826Z,17.75
2019-03-31T01:57:03.232Z,17.66
2019-03-31T01:58:03.042Z,18.19
2019-03-31T01:59:03.266Z,18.06
2019-03-31T02:00:03.277Z,19.28
2019-03-31T02:01:03.315Z,17.51
2019-03-31T02:02:04.967Z,18.6
2019-03-31T02:03:03.641Z,17.66
2019-03-31T02:04:03.048Z,18.34
2019-03-31T02:05:03.014Z,18.21
2019-03-31T02:06:03.005Z,18.74
2019-03-31T02:07:02.767Z,17.5
2019-03-31T02:08:02.962Z,18.71
2019-03-31T02:09:03.602Z,19.02
2019-03-31T02:10:02.929Z,18.74
2019-03-31T02:11:02.862Z,18.71
2019-03-31T02:12:02.628Z,19.87
2019-03-31T02:13:04.127Z,18.92
2019-03-31T02:14:02.958Z,19.69
2019-03-31T02:15:02.856Z,18.35
2019-03-31T02:16:02.895Z,18.67
2019-03-31T02:17:03.623Z,18.56
2019-03-31T02:18:03.476Z,18.36
2019-03-31T02:19:03.577Z,19.1
2019-03-31T02:20:03.500Z,18.55
2019-03-31T02:21:03.590Z,18.14
2019-03-31T02:22:03.582Z,18.25
2019-03-31T02:23:03.680Z,19.1
2019-03-31T02:24:03.506Z,18.12
2019-03-31T02:25:03.599Z,19.25
2019-03-31T02:26:03.494Z,18.84
2019-03-31T02:27:03.287Z,17.95
2019-03-31T02:28:03.326Z,18.82
2019-03-31T02:29:03.314Z,18.95
2019-03-31T02:30:03.492Z,19.03
2019-03-31T02:31:03.342Z,18.72
2019-03-31T02:32:03.184Z,20.08
2019-03-31T02:33:03.025Z,18.6
2019-03-31T02:34:03.221Z,18.28
2019-03-31T02:35:03.164Z,19
2019-03-31T02:36:03.015Z,19.05
2019-03-31T02:37:02.896Z,19.44
2019-03-31T02:38:02.881Z,19.35
2019-03-31T02:39:02.824Z,18.02
2019-03-31T02:40:02.891Z,18.02
2019-03-31T02:41:03.595Z,19.34
2019-03-31T02:42:02.835Z,19.34
2019-03-31T02:43:03.618Z,18.8
2019-03-31T02:44:03.371Z,18.41
2019-03-31T02:45:04.091Z,18.41
2019-03-31T02:46:03.664Z,20.72
2019-03-31T02:47:03.628Z,17.87
2019-03-31T02:48:03.158Z,17.49
2019-03-31T02:49:03.569Z,20.01
2019-03-31T02:50:03.520Z,18.6
2019-03-31T02:51:03.435Z,17.44
2019-03-31T02:52:03.311Z,18.54
2019-03-31T02:53:03.405Z,18.09
2019-03-31T02:54:03.115Z,19.56
2019-03-31T02:55:03.194Z,19.01
2019-03-31T02:56:03.226Z,21.34
2019-03-31T02:57:02.822Z,19.79
2019-03-31T02:58:03.049Z,20.22
2019-03-31T02:59:02.686Z,20.74
2019-03-31T03:00:03.323Z,22.35
2019-03-31T03:01:03.043Z,21.54
2019-03-31T03:02:02.949Z,19.93
2019-03-31T03:03:02.977Z,20.51
2019-03-31T03:04:02.673Z,20.05
2019-03-31T03:05:20.200Z,22.02
2019-03-31T03:06:02.816Z,21.09
2019-03-31T03:07:02.791Z,20.46
2019-03-31T03:08:03.553Z,20.95
2019-03-31T03:09:02.819Z,21.61
2019-03-31T03:10:03.496Z,18.74
2019-03-31T03:11:03.517Z,20.24
2019-03-31T03:12:03.614Z,18.5
2019-03-31T03:13:03.690Z,18.74
2019-03-31T03:14:03.455Z,17.47
2019-03-31T03:15:03.493Z,18.95
2019-03-31T03:16:03.231Z,19.03
2019-03-31T03:17:03.407Z,18.46
2019-03-31T03:18:03.273Z,19.48
2019-03-31T03:19:03.123Z,18.45
2019-03-31T03:20:03.363Z,18.73
2019-03-31T03:21:03.283Z,18.54
2019-03-31T03:22:03.432Z,18.3
2019-03-31T03:23:02.944Z,18.36
2019-03-31T03:24:03.203Z,17.14
2019-03-31T03:25:02.900Z,18.65
2019-03-31T03:26:03.346Z,17.85
2019-03-31T03:27:02.981Z,17.56
2019-03-31T03:28:03.055Z,17.56
2019-03-31T03:29:02.907Z,18.34
2019-03-31T03:30:02.982Z,18.34
2019-03-31T03:31:03.535Z,18.21
2019-03-31T03:32:03.749Z,18.89
2019-03-31T03:33:19.290Z,18.89
2019-03-31T03:34:02.907Z,18.49
2019-03-31T03:35:02.738Z,17.82
2019-03-31T03:36:03.571Z,17.82
2019-03-31T03:37:03.501Z,18.56
2019-03-31T03:38:03.534Z,18.91
2019-03-31T03:39:03.660Z,18.48
2019-03-31T03:40:03.580Z,18.29
2019-03-31T03:41:03.683Z,19.07
2019-03-31T03:42:03.458Z,19.12
2019-03-31T03:43:03.480Z,18.94
2019-03-31T03:44:03.343Z,18.96
2019-03-31T03:45:03.567Z,17.99
2019-03-31T03:46:03.839Z,19.19
2019-03-31T03:47:03.284Z,19.86
2019-03-31T03:48:03.286Z,18.52
2019-03-31T03:49:03.319Z,18.15
2019-03-31T03:50:03.382Z,19
2019-03-31T03:51:03.120Z,18.47
2019-03-31T03:52:03.125Z,17.86
2019-03-31T03:53:03.206Z,19.01
2019-03-31T03:54:03.172Z,18.38
2019-03-31T03:55:03.281Z,17.63
2019-03-31T03:56:02.835Z,16.93
2019-03-31T03:57:03.201Z,20.25
2019-03-31T03:58:03.162Z,17.97
2019-03-31T03:59:02.947Z,19.06
2019-03-31T04:00:02.695Z,19.08
2019-03-31T04:01:03.021Z,18.88
2019-03-31T04:02:03.053Z,18.5
2019-03-31T04:03:04.032Z,18.82
2019-03-31T04:04:02.827Z,18.12
2019-03-31T04:05:02.837Z,17.88
2019-03-31T04:06:02.797Z,17.31
2019-03-31T04:07:03.506Z,18.51
2019-03-31T04:08:02.870Z,17.9
2019-03-31T04:09:02.747Z,17.87
2019-03-31T04:10:02.781Z,17.59
2019-03-31T04:11:03.717Z,17.62
2019-03-31T04:12:03.349Z,17.94
2019-03-31T04:13:03.490Z,19.11
2019-03-31T04:14:03.553Z,20.55
2019-03-31T04:15:03.638Z,16.96
2019-03-31T04:16:03.291Z,19.74
2019-03-31T04:17:03.497Z,19.48
2019-03-31T04:18:03.299Z,19.48
2019-03-31T04:19:03.779Z,17.69
2019-03-31T04:20:03.303Z,19.88
2019-03-31T04:21:03.421Z,19.88
2019-03-31T04:22:03.370Z,18.27
2019-03-31T04:23:03.181Z,18.21
2019-03-31T04:24:02.970Z,18.44
2019-03-31T04:25:03.179Z,19.11
2019-03-31T04:26:02.964Z,19.48
2019-03-31T04:27:02.741Z,18.98
2019-03-31T04:28:02.849Z,18.22
2019-03-31T04:29:03.058Z,19.26
2019-03-31T04:30:02.989Z,18.12
2019-03-31T04:31:03.682Z,18.17
2019-03-31T04:32:03.038Z,19.65
2019-03-31T04:33:02.853Z,18.69
2019-03-31T04:34:03.072Z,18.73
2019-03-31T04:35:02.900Z,18.41
2019-03-31T04:36:02.793Z,18.64
2019-03-31T04:37:02.686Z,19.98
2019-03-31T04:38:03.732Z,18.45
2019-03-31T04:39:03.512Z,20.72
2019-03-31T04:40:03.438Z,18.77
2019-03-31T04:41:02.729Z,19.27
2019-03-31T04:42:03.819Z,20.48
2019-03-31T04:43:03.717Z,20.12
2019-03-31T04:44:03.394Z,19.33
2019-03-31T04:45:03.662Z,19.88
2019-03-31T04:46:03.324Z,18.69
2019-03-31T04:47:03.430Z,18.16
2019-03-31T04:48:03.346Z,18.31
2019-03-31T04:49:03.128Z,20.55
2019-03-31T04:50:03.241Z,18.1
2019-03-31T04:51:03.016Z,19.12
2019-03-31T04:52:03.159Z,19.21
2019-03-31T04:53:03.266Z,18.68
2019-03-31T04:54:03.252Z,18.34
2019-03-31T04:55:02.816Z,20.07
2019-03-31T04:56:03.106Z,19.62
2019-03-31T04:57:04.817Z,19.97
2019-03-31T04:58:02.836Z,20.26
2019-03-31T04:59:02.895Z,18.49
2019-03-31T05:00:03.047Z,20.71
2019-03-31T05:01:02.751Z,18.73
2019-03-31T05:02:03.640Z,18.63
2019-03-31T05:03:02.820Z,19.96
2019-03-31T05:04:05.495Z,18.67
2019-03-31T05:05:03.816Z,17.36
2019-03-31T05:06:03.612Z,17.15
2019-03-31T05:07:03.779Z,18.42
2019-03-31T05:08:03.470Z,20.09
2019-03-31T05:09:03.704Z,20.09
2019-03-31T05:10:03.350Z,19.72
2019-03-31T05:11:02.696Z,19.72
2019-03-31T05:12:03.407Z,19.08
2019-03-31T05:13:03.333Z,18.49
2019-03-31T05:14:03.526Z,19.06
2019-03-31T05:15:03.177Z,20.26
2019-03-31T05:16:03.284Z,19.69
2019-03-31T05:17:03.296Z,19.33
2019-03-31T05:18:04.712Z,18.61
2019-03-31T05:19:03.001Z,19.89
2019-03-31T05:20:03.328Z,20.48
2019-03-31T05:21:02.958Z,19.72
2019-03-31T05:22:02.949Z,20.49
2019-03-31T05:23:02.650Z,19.65
2019-03-31T05:24:03.127Z,20.87
2019-03-31T05:25:03.210Z,20.46
2019-03-31T05:26:03.014Z,21.91
2019-03-31T05:27:02.913Z,20.76
2019-03-31T05:28:02.882Z,19.08
2019-03-31T05:29:02.806Z,18.66
2019-03-31T05:30:03.858Z,18.58
2019-03-31T05:31:02.888Z,20.24
2019-03-31T05:32:03.611Z,20.15
2019-03-31T05:33:02.854Z,18.34
2019-03-31T05:34:19.462Z,19.26
2019-03-31T05:35:02.840Z,20.24
2019-03-31T05:36:03.934Z,20.3
2019-03-31T05:37:03.601Z,19.56
2019-03-31T05:38:03.572Z,21.04
2019-03-31T05:39:03.630Z,20.65
2019-03-31T05:40:03.510Z,19.96
2019-03-31T05:41:03.124Z,19.84
2019-03-31T05:42:03.434Z,19.99
2019-03-31T05:43:03.307Z,19.65
2019-03-31T05:44:06.218Z,19.29
2019-03-31T05:45:03.372Z,18.69
2019-03-31T05:46:03.489Z,18.82
2019-03-31T05:47:03.160Z,19.2
2019-03-31T05:48:03.103Z,17.97
2019-03-31T05:49:03.435Z,18.94
2019-03-31T05:50:02.946Z,19.83
2019-03-31T05:51:03.034Z,17.92
2019-03-31T05:52:02.998Z,19.48
2019-03-31T05:53:02.907Z,19.78
2019-03-31T05:54:03.513Z,18.24
2019-03-31T05:55:03.138Z,18.24
2019-03-31T05:56:02.789Z,20.26
2019-03-31T05:57:03.634Z,19.65
2019-03-31T05:58:03.684Z,19.65
2019-03-31T05:59:03.500Z,19.37
2019-03-31T06:00:03.329Z,19.31
2019-03-31T06:01:03.404Z,19.31
2019-03-31T06:02:03.706Z,17.89
2019-03-31T06:03:03.537Z,19.74
2019-03-31T06:04:03.229Z,18.84
2019-03-31T06:05:03.677Z,19.52
2019-03-31T06:06:03.570Z,20.65
2019-03-31T06:07:03.226Z,19.98
2019-03-31T06:08:03.457Z,19.65
2019-03-31T06:09:03.015Z,19.98
2019-03-31T06:10:03.281Z,21.08
2019-03-31T06:11:03.046Z,19.55
2019-03-31T06:12:02.996Z,19.53
2019-03-31T06:13:03.074Z,19.32
2019-03-31T06:14:03.134Z,19.55
2019-03-31T06:15:03.033Z,20.45
2019-03-31T06:16:02.925Z,20.5
2019-03-31T06:17:02.841Z,19.71
2019-03-31T06:18:03.776Z,20.78
2019-03-31T06:19:03.742Z,18.66
2019-03-31T06:20:03.815Z,19.89
2019-03-31T06:21:03.443Z,19.12
2019-03-31T06:22:03.673Z,20.41
2019-03-31T06:23:03.638Z,20.77
2019-03-31T06:24:03.418Z,19.14
2019-03-31T06:25:03.555Z,20.96
2019-03-31T06:26:03.577Z,20.68
2019-03-31T06:27:03.286Z,21.35
2019-03-31T06:28:03.365Z,21.14
2019-03-31T06:29:03.368Z,21.99
2019-03-31T06:30:03.518Z,21.79
2019-03-31T06:31:03.114Z,21.79
2019-03-31T06:32:03.504Z,20.78
2019-03-31T06:33:03.149Z,20.76
2019-03-31T06:34:03.208Z,21.01
2019-03-31T06:35:03.311Z,20.06
2019-03-31T06:36:03.068Z,19.31
2019-03-31T06:37:02.953Z,20.05
2019-03-31T06:38:02.873Z,18.88
2019-03-31T06:39:03.035Z,19.25
2019-03-31T06:40:03.773Z,18.64
2019-03-31T06:41:03.717Z,19.45
2019-03-31T06:42:02.839Z,19.51
2019-03-31T06:43:02.776Z,19.51
2019-03-31T06:44:02.754Z,18.83
2019-03-31T06:45:03.773Z,18.34
2019-03-31T06:46:02.718Z,18.34
2019-03-31T06:47:03.280Z,18.52
2019-03-31T06:48:03.265Z,18.25
2019-03-31T06:49:03.429Z,18.25
2019-03-31T06:50:03.677Z,18.01
2019-03-31T06:51:03.178Z,17.92
2019-03-31T06:52:03.083Z,16.96
2019-03-31T06:53:03.220Z,16.96
2019-03-31T06:54:03.196Z,17.6
2019-03-31T06:55:03.222Z,16.46
2019-03-31T06:56:03.326Z,17.25
2019-03-31T06:57:02.744Z,16.1
2019-03-31T06:58:02.848Z,16.52
2019-03-31T06:59:03.016Z,16.36
2019-03-31T07:00:03.264Z,15.92
2019-03-31T07:01:03.010Z,16.74
2019-03-31T07:02:03.630Z,15.87
2019-03-31T07:03:02.892Z,17.52
2019-03-31T07:04:02.841Z,15.38
2019-03-31T07:05:03.563Z,15.5
2019-03-31T07:06:03.441Z,15.84
2019-03-31T07:07:03.552Z,15.54
2019-03-31T07:08:03.476Z,13.97
2019-03-31T07:09:03.340Z,15.63
2019-03-31T07:10:03.603Z,16.25
2019-03-31T07:11:03.509Z,15.56
2019-03-31T07:12:03.148Z,15.67
2019-03-31T07:13:03.588Z,16.55
2019-03-31T07:14:03.528Z,15.81
2019-03-31T07:15:03.493Z,15.06
2019-03-31T07:16:03.417Z,14.64
2019-03-31T07:17:03.402Z,15.82
2019-03-31T07:18:03.122Z,15.46
2019-03-31T07:19:02.938Z,15
2019-03-31T07:20:02.975Z,14.44
2019-03-31T07:21:03.181Z,16.04
2019-03-31T07:22:03.148Z,15.09
2019-03-31T07:23:02.991Z,15.8
2019-03-31T07:24:03.098Z,13.26
2019-03-31T07:25:03.096Z,13.88
2019-03-31T07:26:02.882Z,14
2019-03-31T07:27:02.691Z,14.51
2019-03-31T07:28:02.757Z,15.76
2019-03-31T07:29:03.538Z,16.71
2019-03-31T07:30:07.299Z,13.59
2019-03-31T07:31:03.488Z,13.46
2019-03-31T07:32:03.835Z,13.7
2019-03-31T07:33:03.687Z,15.24
2019-03-31T07:34:03.739Z,15.24
2019-03-31T07:35:18.868Z,14.97
2019-03-31T07:36:03.487Z,14.09
2019-03-31T07:37:03.543Z,14.09
2019-03-31T07:38:03.232Z,15.31
2019-03-31T07:39:03.607Z,15.31
2019-03-31T07:40:03.589Z,15.81
2019-03-31T07:41:13.465Z,15.05
2019-03-31T07:42:03.439Z,15.58
2019-03-31T07:43:03.529Z,14.97
2019-03-31T07:44:03.279Z,14.51
2019-03-31T07:45:03.193Z,15.86
2019-03-31T07:46:03.112Z,14.95
2019-03-31T07:47:02.784Z,16.48
2019-03-31T07:48:03.218Z,17.26
2019-03-31T07:49:02.797Z,16.88
2019-03-31T07:50:03.485Z,15.24
2019-03-31T07:51:02.659Z,16.25
2019-03-31T07:52:03.258Z,16.94
2019-03-31T07:53:02.806Z,18.29
2019-03-31T07:54:02.960Z,16.25
2019-03-31T07:55:02.981Z,16.68
2019-03-31T07:56:02.897Z,15.94
2019-03-31T07:57:02.859Z,15.84
2019-03-31T07:58:03.589Z,16.78
2019-03-31T07:59:02.989Z,17.05
2019-03-31T08:00:03.577Z,16.86
2019-03-31T08:01:02.808Z,17.41
2019-03-31T08:02:03.385Z,16.83
2019-03-31T08:03:02.944Z,16.81
2019-03-31T08:04:03.322Z,16.38
2019-03-31T08:05:03.726Z,16.91
2019-03-31T08:06:03.412Z,16.52
2019-03-31T08:07:03.138Z,17.35
2019-03-31T08:08:03.263Z,16.15
2019-03-31T08:09:03.397Z,16.48
2019-03-31T08:10:03.430Z,16.9
2019-03-31T08:11:02.923Z,16.96
2019-03-31T08:12:03.083Z,16.69
2019-03-31T08:13:03.058Z,15.36
2019-03-31T08:14:02.875Z,16.06
2019-03-31T08:15:03.134Z,16.68
2019-03-31T08:16:02.567Z,16.24
2019-03-31T08:17:02.851Z,17.02
2019-03-31T08:18:03.542Z,16.38
2019-03-31T08:19:02.844Z,17.1
2019-03-31T08:20:02.777Z,17.62
2019-03-31T08:21:03.716Z,17.71
2019-03-31T08:22:03.402Z,16.34
2019-03-31T08:23:03.648Z,17.36
2019-03-31T08:24:06.938Z,16.21
2019-03-31T08:25:03.602Z,16.21
2019-03-31T08:26:03.352Z,17.48
2019-03-31T08:27:05.796Z,17.48
2019-03-31T08:28:02.955Z,15.69
2019-03-31T08:29:03.559Z,15.69
2019-03-31T08:30:03.470Z,16.06
2019-03-31T08:31:02.902Z,16.49
2019-03-31T08:32:03.259Z,16.49
2019-03-31T08:33:03.252Z,16.81
2019-03-31T08:34:03.260Z,17.08
2019-03-31T08:35:03.112Z,17.16
2019-03-31T08:36:03.371Z,18.66
2019-03-31T08:37:02.894Z,17.78
2019-03-31T08:38:03.179Z,16.73
2019-03-31T08:39:02.856Z,18.45
2019-03-31T08:40:03.119Z,18.78
2019-03-31T08:41:03.669Z,16.31
2019-03-31T08:42:03.625Z,15.81
2019-03-31T08:43:02.755Z,15.96
2019-03-31T08:44:03.693Z,17.47
2019-03-31T08:45:02.685Z,15.42
2019-03-31T08:46:03.662Z,17.61
2019-03-31T08:47:03.647Z,16.92
2019-03-31T08:48:03.519Z,16.07
2019-03-31T08:49:03.188Z,15.89
2019-03-31T08:50:03.541Z,16.08
2019-03-31T08:51:03.412Z,17.08
2019-03-31T08:52:03.151Z,16.28
2019-03-31T08:53:03.218Z,16.94
2019-03-31T08:54:03.356Z,17.22
2019-03-31T08:55:03.309Z,16.66
2019-03-31T08:56:03.210Z,17.16
2019-03-31T08:57:03.220Z,16.13
2019-03-31T08:58:03.076Z,16.18
2019-03-31T08:59:02.998Z,16.2
2019-03-31T09:00:02.846Z,17.83
2019-03-31T09:01:02.943Z,16.81
2019-03-31T09:02:03.772Z,16.72
2019-03-31T09:03:02.851Z,16.48
2019-03-31T09:04:02.650Z,17.58
2019-03-31T09:05:03.788Z,17.05
2019-03-31T09:06:03.689Z,18.07
2019-03-31T09:07:03.669Z,16.66
2019-03-31T09:08:03.691Z,17.21
2019-03-31T09:09:03.575Z,17.75
2019-03-31T09:10:03.271Z,16.86
2019-03-31T09:11:03.416Z,16.84
2019-03-31T09:12:03.347Z,17.83
2019-03-31T09:13:03.326Z,17.32
2019-03-31T09:14:03.329Z,17.38
2019-03-31T09:15:03.568Z,17.38
2019-03-31T09:16:03.293Z,16.82
2019-03-31T09:17:03.248Z,16.82
2019-03-31T09:18:03.247Z,18.23
2019-03-31T09:19:03.241Z,17.94
2019-03-31T09:20:03.364Z,18.72
2019-03-31T09:21:03.241Z,18.25
2019-03-31T09:22:03.254Z,18.39
2019-03-31T09:23:02.786Z,17.95
2019-03-31T09:24:02.968Z,17.15
2019-03-31T09:25:02.848Z,18.22
2019-03-31T09:26:02.977Z,18.39
2019-03-31T09:27:02.850Z,18.68
2019-03-31T09:28:02.700Z,18.81
2019-03-31T09:29:02.822Z,18.94
2019-03-31T09:30:03.333Z,18.85
2019-03-31T09:31:02.659Z,19.04
2019-03-31T09:32:03.596Z,17.85
2019-03-31T09:33:03.438Z,18.13
2019-03-31T09:34:03.530Z,17.71
2019-03-31T09:35:03.520Z,18.25
2019-03-31T09:36:16.782Z,19.22
2019-03-31T09:37:03.289Z,18.93
2019-03-31T09:38:03.217Z,18.84
2019-03-31T09:39:03.286Z,18.71
2019-03-31T09:40:03.036Z,19.36
2019-03-31T09:41:03.360Z,20.04
2019-03-31T09:42:03.045Z,18.45
2019-03-31T09:43:03.097Z,20.39
2019-03-31T09:44:03.282Z,19.63
2019-03-31T09:45:03.516Z,19.04
2019-03-31T09:46:03.131Z,20.24
2019-03-31T09:47:03.258Z,20.49
2019-03-31T09:48:03.132Z,19.26
2019-03-31T09:49:03.198Z,20.79
2019-03-31T09:50:03.301Z,20.64
2019-03-31T09:51:02.946Z,20.1
2019-03-31T09:52:02.891Z,20.41
2019-03-31T09:53:02.956Z,21.51
2019-03-31T09:54:02.773Z,20.99
2019-03-31T09:55:02.830Z,28.55
2019-03-31T09:56:02.760Z,21.64
2019-03-31T09:57:03.102Z,21.54
2019-03-31T09:58:02.863Z,19.85
2019-03-31T09:59:02.721Z,21.4
2019-03-31T10:00:03.202Z,20.25
2019-03-31T10:01:02.751Z,20.74
2019-03-31T10:02:03.192Z,20.74
2019-03-31T10:03:02.939Z,21.61
2019-03-31T10:04:02.808Z,21.6
2019-03-31T10:05:03.249Z,21.6
2019-03-31T10:06:11.275Z,22
2019-03-31T10:07:02.834Z,22
2019-03-31T10:08:02.624Z,21.77
2019-03-31T10:09:03.040Z,19.85
2019-03-31T10:10:03.567Z,20.48
2019-03-31T10:11:03.650Z,20.32
2019-03-31T10:12:03.351Z,21.46
2019-03-31T10:13:03.721Z,20.98
2019-03-31T10:14:03.381Z,20.85
2019-03-31T10:15:03.583Z,20.4
2019-03-31T10:16:03.652Z,20.81
2019-03-31T10:17:03.155Z,21.64
2019-03-31T10:18:03.287Z,22.19
2019-03-31T10:19:03.128Z,20.28
2019-03-31T10:20:03.595Z,21.06
2019-03-31T10:21:03.185Z,20.64
2019-03-31T10:22:03.328Z,20.86
2019-03-31T10:23:03.175Z,21.86
2019-03-31T10:24:02.944Z,22.12
2019-03-31T10:25:02.828Z,23.38
2019-03-31T10:26:02.974Z,21.39
2019-03-31T10:27:03.076Z,21.07
2019-03-31T10:28:02.961Z,21.94
2019-03-31T10:29:02.908Z,21.2
2019-03-31T10:30:03.434Z,22.94
2019-03-31T10:31:03.081Z,21.92
2019-03-31T10:32:03.043Z,19.2
2019-03-31T10:33:02.827Z,17.86
2019-03-31T10:34:02.777Z,17.38
2019-03-31T10:35:02.701Z,17.56
2019-03-31T10:36:02.796Z,16.67
2019-03-31T10:37:02.788Z,16.55
2019-03-31T10:38:03.545Z,16.88
2019-03-31T10:39:02.793Z,15.73
2019-03-31T10:40:03.686Z,17.88
2019-03-31T10:41:03.650Z,17.43
2019-03-31T10:42:03.513Z,16.9
2019-03-31T10:43:03.311Z,17.64
2019-03-31T10:44:04.087Z,19.3
2019-03-31T10:45:03.438Z,17.51
2019-03-31T10:46:03.353Z,18.99
2019-03-31T10:47:03.239Z,18.15
2019-03-31T10:48:03.292Z,19.33
2019-03-31T10:49:03.056Z,18.45
2019-03-31T10:50:03.096Z,18.45
2019-03-31T10:51:03.247Z,18.45
2019-03-31T10:52:03.146Z,20.07
2019-03-31T10:53:02.821Z,18.57
2019-03-31T10:54:04.873Z,18.57
2019-03-31T10:55:02.908Z,18.2
2019-03-31T10:56:03.623Z,18.93
2019-03-31T10:57:02.909Z,18.93
2019-03-31T10:58:02.946Z,13.69
2019-03-31T10:59:02.778Z,13.95
2019-03-31T11:00:03.521Z,14.44
2019-03-31T11:01:03.994Z,12.59
2019-03-31T11:02:03.608Z,14.88
2019-03-31T11:03:03.551Z,12.64
2019-03-31T11:04:03.726Z,12.16
2019-03-31T11:05:03.581Z,12.65
2019-03-31T11:06:03.227Z,12.44
2019-03-31T11:07:03.915Z,12.12
2019-03-31T11:08:03.287Z,11.81
2019-03-31T11:09:03.586Z,12.59
2019-03-31T11:10:03.316Z,12.79
2019-03-31T11:11:03.014Z,12.56
2019-03-31T11:12:03.345Z,12.17
2019-03-31T11:13:03.220Z,13.96
2019-03-31T11:14:03.299Z,13.82
2019-03-31T11:15:03.275Z,13.74
2019-03-31T11:16:03.326Z,13.68
2019-03-31T11:17:03.153Z,14.44
2019-03-31T11:18:03.282Z,14.63
2019-03-31T11:19:03.281Z,13.39
2019-03-31T11:20:03.182Z,13.21
2019-03-31T11:21:02.813Z,13.05
2019-03-31T11:22:03.175Z,12.69
2019-03-31T11:23:02.968Z,12.62
2019-03-31T11:24:04.041Z,11.56
2019-03-31T11:25:02.992Z,12.6
2019-03-31T11:26:03.710Z,13.49
2019-03-31T11:27:03.424Z,13.22
2019-03-31T11:28:03.490Z,13.96
2019-03-31T11:29:03.018Z,14.21
2019-03-31T11:30:03.512Z,14.26
2019-03-31T11:31:02.772Z,14.82
2019-03-31T11:32:03.302Z,14.82
2019-03-31T11:33:02.916Z,13.21
2019-03-31T11:34:03.350Z,12.96
2019-03-31T11:35:03.571Z,13.95
2019-03-31T11:36:03.570Z,14.1
2019-03-31T11:37:14.086Z,13.27
2019-03-31T11:38:03.386Z,13.98
2019-03-31T11:39:03.382Z,14.09
2019-03-31T11:40:03.636Z,13.69
2019-03-31T11:41:03.370Z,13.68
2019-03-31T11:42:03.609Z,12.28
2019-03-31T11:43:03.141Z,12.33
2019-03-31T11:44:03.246Z,13.82
2019-03-31T11:45:03.222Z,11.96
2019-03-31T11:46:03.599Z,13.38
2019-03-31T11:47:02.935Z,11.91
2019-03-31T11:48:02.989Z,12.45
2019-03-31T11:49:02.811Z,13.04
2019-03-31T11:50:03.088Z,13.35
2019-03-31T11:51:02.806Z,12.48
2019-03-31T11:52:02.812Z,13.51
2019-03-31T11:53:03.018Z,12.88
2019-03-31T11:54:02.662Z,11.55
2019-03-31T11:55:02.833Z,13.2
2019-03-31T11:56:03.673Z,13.48
2019-03-31T11:57:03.643Z,12.34
2019-03-31T11:58:03.721Z,12.94
2019-03-31T11:59:02.875Z,14.21
2019-03-31T12:00:03.608Z,12.82
2019-03-31T12:01:02.842Z,13.81
2019-03-31T12:02:03.547Z,13.24
2019-03-31T12:03:03.569Z,13.08
2019-03-31T12:04:02.822Z,13.81
2019-03-31T12:05:06.400Z,12.54
2019-03-31T12:06:03.653Z,12.95
2019-03-31T12:07:03.427Z,14.28
2019-03-31T12:08:03.601Z,12.16
2019-03-31T12:09:03.353Z,12.04
2019-03-31T12:10:03.421Z,11.42
2019-03-31T12:11:03.393Z,11.42
2019-03-31T12:12:03.637Z,12.54
2019-03-31T12:13:03.266Z,12.54
2019-03-31T12:14:03.357Z,13.02
2019-03-31T12:15:03.333Z,14.03
2019-03-31T12:16:03.253Z,14.03
2019-03-31T12:17:03.598Z,13.03
2019-03-31T12:18:03.278Z,11.44
2019-03-31T12:19:03.256Z,11.94
2019-03-31T12:20:03.275Z,12.45
2019-03-31T12:21:03.351Z,12.67
2019-03-31T12:22:03.246Z,12.38
2019-03-31T12:23:03.093Z,12.28
2019-03-31T12:24:02.937Z,12.32
2019-03-31T12:25:02.853Z,12.4
2019-03-31T12:26:02.923Z,12.9
2019-03-31T12:27:02.618Z,12.64
2019-03-31T12:28:03.657Z,13.43
2019-03-31T12:29:03.686Z,12.79
2019-03-31T12:30:02.580Z,11.35
2019-03-31T12:31:03.684Z,12.61
2019-03-31T12:32:02.869Z,11.35
2019-03-31T12:33:03.535Z,13.12
2019-03-31T12:34:03.740Z,11.36
2019-03-31T12:35:03.611Z,11.99
2019-03-31T12:36:03.802Z,13.31
2019-03-31T12:37:03.823Z,12.53
2019-03-31T12:38:03.337Z,12.74
2019-03-31T12:39:03.210Z,12.16
2019-03-31T12:40:03.470Z,11.96
2019-03-31T12:41:03.248Z,12.68
2019-03-31T12:42:03.584Z,12.19
2019-03-31T12:43:03.165Z,12.58
2019-03-31T12:44:03.162Z,11.85
2019-03-31T12:45:03.093Z,12.09
2019-03-31T12:46:03.071Z,11.79
2019-03-31T12:47:03.012Z,12.11
2019-03-31T12:48:03.040Z,12.05
2019-03-31T12:49:02.986Z,13.06
2019-03-31T12:50:02.951Z,12.61
2019-03-31T12:51:02.912Z,12.61
2019-03-31T12:52:03.102Z,12.29
2019-03-31T12:53:02.606Z,12.29
2019-03-31T12:54:02.772Z,11.04